Terminal Aerodrome Forecast
Issued by NWS

Home | Current Version | Previous Version | Text Only | Print | Product List | Glossary On
Versions: 1 2 3 4 5 6 7 8 9 10 11 12 13 14 15
000
FTUS43 KICT 241700
TAFHUT
TAF
KHUT 241720Z 2418/2518 33020G28KT P6SM BKN080
     FM242000 33017G25KT P6SM SKC
     FM250000 33011KT P6SM SKC
     FM250300 VRB03KT P6SM SKC
     FM251600 21014G20KT P6SM SCT250=

USA.gov is the U.S. government's official web portal to all federal, state and local government web resources and services.